Time;durP1;ratioP1;P1;durP2;ratioP2;P2;SDS_P1;SDS_P2;PMS_P1;PMS_P2;Temp;Humidity;BMP_temperature;BMP_pressure;BME280_temperature;BME280_humidity;BME280_pressure;Samples;Min_cycle;Max_cycle;Signal;HPM_P1;HPM_P2
2023/10/08 00:01:16;;;;;;;0.10;0.00;;;;;;;;;;4985681;28;20054;-60
2023/10/08 00:03:48;;;;;;;0.00;0.00;;;;;;;;;;4985221;28;20044;-60
2023/10/08 00:06:14;;;;;;;1.60;0.00;;;;;;;;;;4984154;28;20046;-60
2023/10/08 00:08:40;;;;;;;0.00;0.00;;;;;;;;;;4986328;28;20034;-60
2023/10/08 00:11:07;;;;;;;0.10;0.10;;;;;;;;;;4985034;28;20035;-60
2023/10/08 00:13:42;;;;;;;0.00;0.00;;;;;;;;;;4985770;28;20050;-60
2023/10/08 00:16:15;;;;;;;0.00;0.00;;;;;;;;;;4985719;28;20046;-59
2023/10/08 00:18:51;;;;;;;0.00;0.00;;;;;;;;;;4986194;28;20053;-60
2023/10/08 00:21:26;;;;;;;0.00;0.00;;;;;;;;;;4992241;28;20042;-60
2023/10/08 00:23:57;;;;;;;0.40;0.10;;;;;;;;;;4987154;28;20050;-60
2023/10/08 00:26:34;;;;;;;0.03;0.00;;;;;;;;;;4992107;28;20061;-60
2023/10/08 00:29:06;;;;;;;0.03;0.00;;;;;;;;;;4984358;28;20039;-61
2023/10/08 00:31:37;;;;;;;0.00;0.00;;;;;;;;;;4984873;28;20053;-61
2023/10/08 00:34:05;;;;;;;0.00;0.00;;;;;;;;;;4991177;28;20096;-60
2023/10/08 00:36:31;;;;;;;0.03;0.00;;;;;;;;;;4992216;28;20077;-60
2023/10/08 00:38:59;;;;;;;0.05;0.00;;;;;;;;;;4992089;28;20038;-59
2023/10/08 00:41:30;;;;;;;0.05;0.05;;;;;;;;;;4992042;28;20145;-60
2023/10/08 00:43:59;;;;;;;0.00;0.00;;;;;;;;;;4990963;28;20461;-60
2023/10/08 00:46:32;;;;;;;0.45;0.10;;;;;;;;;;4991525;28;20042;-60
2023/10/08 00:49:24;;;;;;;0.85;0.00;;;;;;;;;;4989938;28;20085;-61
2023/10/08 00:54:28;;;;;;;0.00;0.00;;;;;;;;;;4990157;28;20081;-60
2023/10/08 00:56:57;;;;;;;0.00;0.00;;;;;;;;;;4990377;28;20050;-60
2023/10/08 00:59:24;;;;;;;0.10;0.10;;;;;;;;;;4990032;28;20042;-60
2023/10/08 01:01:51;;;;;;;0.00;0.00;;;;;;;;;;4990173;28;20042;-61
2023/10/08 01:04:26;;;;;;;0.03;0.03;;;;;;;;;;4990487;28;20042;-60
2023/10/08 01:06:56;;;;;;;0.10;0.00;;;;;;;;;;4990175;28;20649;-60
2023/10/08 01:09:31;;;;;;;0.10;0.00;;;;;;;;;;4992262;28;20057;-60
2023/10/08 01:14:53;;;;;;;0.00;0.00;;;;;;;;;;4990431;28;20042;-60
2023/10/08 01:17:28;;;;;;;0.52;0.20;;;;;;;;;;4991004;28;20581;-60
2023/10/08 01:20:08;;;;;;;0.00;0.00;;;;;;;;;;4997884;28;20126;-60
2023/10/08 01:22:34;;;;;;;0.10;0.05;;;;;;;;;;4990669;28;20050;-60
2023/10/08 01:25:02;;;;;;;0.28;0.20;;;;;;;;;;4991975;28;20053;-60
2023/10/08 01:27:34;;;;;;;0.65;0.10;;;;;;;;;;4991697;28;20053;-60
2023/10/08 01:30:09;;;;;;;0.10;0.10;;;;;;;;;;4990331;28;20062;-60
2023/10/08 01:32:36;;;;;;;0.10;0.10;;;;;;;;;;4988301;28;20050;-60
2023/10/08 01:35:05;;;;;;;0.05;0.00;;;;;;;;;;4988213;28;20050;-60
2023/10/08 01:37:33;;;;;;;0.05;0.05;;;;;;;;;;4988425;28;20050;-60
2023/10/08 01:40:03;;;;;;;0.10;0.10;;;;;;;;;;4988934;28;20105;-60
2023/10/08 01:42:32;;;;;;;0.03;0.00;;;;;;;;;;4970512;28;20054;-60
2023/10/08 01:44:58;;;;;;;0.10;0.00;;;;;;;;;;4988258;28;20058;-60
2023/10/08 01:47:25;;;;;;;0.65;0.22;;;;;;;;;;4987680;28;20046;-61
2023/10/08 01:49:58;;;;;;;0.10;0.10;;;;;;;;;;4987371;28;20053;-59
2023/10/08 01:52:24;;;;;;;0.10;0.10;;;;;;;;;;4988253;28;20053;-60
2023/10/08 01:54:54;;;;;;;0.00;0.00;;;;;;;;;;4987694;28;20077;-60
2023/10/08 01:57:20;;;;;;;0.30;0.10;;;;;;;;;;4970702;28;20149;-59
2023/10/08 01:59:46;;;;;;;0.10;0.00;;;;;;;;;;4988128;28;20149;-60
2023/10/08 02:02:14;;;;;;;0.50;0.10;;;;;;;;;;4970191;28;20050;-60
2023/10/08 02:04:40;;;;;;;0.20;0.13;;;;;;;;;;4987589;28;20057;-60
2023/10/08 02:07:08;;;;;;;0.25;0.10;;;;;;;;;;4988363;28;20050;-60
2023/10/08 02:09:37;;;;;;;0.00;0.00;;;;;;;;;;4979480;28;20042;-60
2023/10/08 02:12:03;;;;;;;0.10;0.00;;;;;;;;;;4988240;28;20494;-59
2023/10/08 02:14:31;;;;;;;0.08;0.08;;;;;;;;;;4988095;28;20164;-60
2023/10/08 02:17:01;;;;;;;0.10;0.10;;;;;;;;;;4986732;28;20042;-60
2023/10/08 02:19:27;;;;;;;0.10;0.10;;;;;;;;;;4988047;28;20173;-60
2023/10/08 02:21:54;;;;;;;0.17;0.00;;;;;;;;;;4987974;28;20646;-60
2023/10/08 02:24:24;;;;;;;0.35;0.05;;;;;;;;;;4983205;28;20174;-60
2023/10/08 02:26:54;;;;;;;0.10;0.10;;;;;;;;;;4987296;28;20138;-59
2023/10/08 02:29:21;;;;;;;0.10;0.10;;;;;;;;;;4987884;28;20125;-60
2023/10/08 02:31:47;;;;;;;0.10;0.10;;;;;;;;;;4986469;28;20057;-60
2023/10/08 02:34:14;;;;;;;0.20;0.10;;;;;;;;;;4988454;28;20124;-60
2023/10/08 02:36:40;;;;;;;0.30;0.10;;;;;;;;;;4987446;28;20042;-61
2023/10/08 02:39:13;;;;;;;0.43;0.10;;;;;;;;;;4987279;28;20042;-60
2023/10/08 02:41:45;;;;;;;0.00;0.00;;;;;;;;;;4986889;28;20046;-60
2023/10/08 02:44:12;;;;;;;0.20;0.20;;;;;;;;;;4987507;28;20494;-60
2023/10/08 02:46:42;;;;;;;0.00;0.00;;;;;;;;;;4986720;28;20042;-60
2023/10/08 02:49:11;;;;;;;0.20;0.10;;;;;;;;;;4987254;28;20051;-60
2023/10/08 02:51:37;;;;;;;0.03;0.00;;;;;;;;;;4985106;28;20053;-60
2023/10/08 02:54:05;;;;;;;0.10;0.00;;;;;;;;;;4985964;28;20038;-60
2023/10/08 02:56:32;;;;;;;0.10;0.10;;;;;;;;;;4987416;28;20077;-60
2023/10/08 02:58:58;;;;;;;0.00;0.00;;;;;;;;;;4986024;28;20046;-60
2023/10/08 03:01:25;;;;;;;0.20;0.20;;;;;;;;;;4985489;28;20133;-61
2023/10/08 03:04:02;;;;;;;0.00;0.00;;;;;;;;;;4986104;28;20034;-60
2023/10/08 03:06:31;;;;;;;0.10;0.10;;;;;;;;;;4986981;28;20048;-60
2023/10/08 03:09:03;;;;;;;0.30;0.10;;;;;;;;;;4986774;28;20053;-60
2023/10/08 03:11:31;;;;;;;0.47;0.10;;;;;;;;;;4986986;28;20092;-60
2023/10/08 03:13:57;;;;;;;0.08;0.00;;;;;;;;;;4985690;28;20045;-60
2023/10/08 03:16:33;;;;;;;0.13;0.13;;;;;;;;;;4987048;28;20053;-60
2023/10/08 03:18:59;;;;;;;0.17;0.10;;;;;;;;;;4986420;28;20046;-60
2023/10/08 03:24:12;;;;;;;0.20;0.15;;;;;;;;;;4986176;28;20049;-60
2023/10/08 03:26:45;;;;;;;0.30;0.10;;;;;;;;;;4986145;28;20564;-60
2023/10/08 03:29:18;;;;;;;0.00;0.00;;;;;;;;;;4985921;28;20038;-60
2023/10/08 03:31:54;;;;;;;0.10;0.10;;;;;;;;;;4985784;28;20202;-60
2023/10/08 03:34:27;;;;;;;0.45;0.20;;;;;;;;;;4984663;28;20069;-60
2023/10/08 03:36:59;;;;;;;;;;;;;;;;;;4986166;28;20093;-60
2023/10/08 03:39:50;;;;;;;0.32;0.10;;;;;;;;;;4986603;28;19976;-61
2023/10/08 03:42:19;;;;;;;0.10;0.00;;;;;;;;;;4983590;28;20040;-61
2023/10/08 03:44:50;;;;;;;0.00;0.00;;;;;;;;;;4986922;28;20489;-60
2023/10/08 03:47:18;;;;;;;0.70;0.10;;;;;;;;;;4986708;28;20042;-61
2023/10/08 03:49:45;;;;;;;0.20;0.10;;;;;;;;;;4982748;28;20044;-60
2023/10/08 03:52:12;;;;;;;0.10;0.10;;;;;;;;;;4986618;28;20045;-60
2023/10/08 03:54:47;;;;;;;0.40;0.10;;;;;;;;;;4985331;28;20717;-60
2023/10/08 03:57:18;;;;;;;0.10;0.10;;;;;;;;;;4986329;28;20046;-60
2023/10/08 03:59:48;;;;;;;0.10;0.10;;;;;;;;;;4986617;28;20126;-60
2023/10/08 04:02:14;;;;;;;0.22;0.20;;;;;;;;;;4967349;28;20535;-61
2023/10/08 04:04:56;;;;;;;0.68;0.10;;;;;;;;;;4983878;28;20034;-60
2023/10/08 04:07:28;;;;;;;0.20;0.05;;;;;;;;;;4985469;28;20050;-60
2023/10/08 04:10:20;;;;;;;0.90;0.10;;;;;;;;;;4968155;28;20077;-60
2023/10/08 04:12:47;;;;;;;0.38;0.20;;;;;;;;;;4977822;28;20053;-61
2023/10/08 04:15:16;;;;;;;;;;;;;;;;;;4987135;28;20050;-60
2023/10/08 04:17:45;;;;;;;0.77;0.10;;;;;;;;;;4985097;28;19945;-60
2023/10/08 04:20:38;;;;;;;0.28;0.20;;;;;;;;;;4985326;28;20493;-60
2023/10/08 04:23:18;;;;;;;0.13;0.10;;;;;;;;;;4981468;28;20494;-60
2023/10/08 04:25:44;;;;;;;0.88;0.20;;;;;;;;;;4986198;28;20075;-60
2023/10/08 04:28:14;;;;;;;0.30;0.10;;;;;;;;;;4981723;28;20042;-60
2023/10/08 04:30:41;;;;;;;0.38;0.10;;;;;;;;;;4985227;28;20581;-60
2023/10/08 04:33:12;;;;;;;0.08;0.08;;;;;;;;;;4985693;28;20630;-60
2023/10/08 04:35:48;;;;;;;0.30;0.15;;;;;;;;;;4985834;28;20121;-59
2023/10/08 04:38:21;;;;;;;0.40;0.17;;;;;;;;;;4984426;28;20479;-60
2023/10/08 04:40:53;;;;;;;0.10;0.00;;;;;;;;;;4984255;28;20039;-60
2023/10/08 04:43:24;;;;;;;0.20;0.10;;;;;;;;;;4985720;28;20556;-60
2023/10/08 04:45:51;;;;;;;0.40;0.10;;;;;;;;;;4984725;28;20077;-60
2023/10/08 04:48:20;;;;;;;0.15;0.10;;;;;;;;;;4986481;28;20034;-60
2023/10/08 04:50:59;;;;;;;0.00;0.00;;;;;;;;;;4968442;28;20141;-61
2023/10/08 04:53:40;;;;;;;1.55;0.15;;;;;;;;;;4983169;28;20045;-60
2023/10/08 04:56:16;;;;;;;0.40;0.20;;;;;;;;;;4986843;28;20057;-60
2023/10/08 04:58:48;;;;;;;0.10;0.10;;;;;;;;;;4984455;28;20432;-60
2023/10/08 05:01:18;;;;;;;1.25;0.32;;;;;;;;;;4985639;28;20486;-60
2023/10/08 05:09:10;;;;;;;0.45;0.10;;;;;;;;;;4987424;28;20038;-59
2023/10/08 05:11:46;;;;;;;0.20;0.20;;;;;;;;;;4987366;28;20049;-60
2023/10/08 05:17:03;;;;;;;0.10;0.10;;;;;;;;;;4988999;28;20046;-60
2023/10/08 05:48:50;;;;;;;0.45;0.30;;;;;;;;;;4986894;28;20078;-60
2023/10/08 05:54:24;;;;;;;0.77;0.20;;;;;;;;;;4953509;28;20109;-60
2023/10/08 06:05:22;;;;;;;0.47;0.30;;;;;;;;;;4988082;28;20407;-60
2023/10/08 06:16:30;;;;;;;0.43;0.30;;;;;;;;;;4987439;28;20758;-60
2023/10/08 06:18:31;;;;;;;0.57;0.20;;;;;;;;;;4982889;28;20734;-60
2023/10/08 06:20:58;;;;;;;0.80;0.30;;;;;;;;;;4987639;28;20093;-60
2023/10/08 06:23:25;;;;;;;0.52;0.20;;;;;;;;;;4987431;28;20050;-60
2023/10/08 06:25:58;;;;;;;0.32;0.10;;;;;;;;;;4987677;28;20034;-60
2023/10/08 06:28:25;;;;;;;0.25;0.00;;;;;;;;;;4988231;28;20074;-60
2023/10/08 06:30:56;;;;;;;0.98;0.30;;;;;;;;;;4986483;28;20050;-59
2023/10/08 06:33:25;;;;;;;0.82;0.30;;;;;;;;;;4986930;28;20047;-60
2023/10/08 06:36:02;;;;;;;0.40;0.17;;;;;;;;;;4987403;28;20046;-60
2023/10/08 06:38:31;;;;;;;0.28;0.28;;;;;;;;;;4968529;28;20217;-60
2023/10/08 06:41:08;;;;;;;0.30;0.20;;;;;;;;;;4987458;28;20046;-60
2023/10/08 06:43:36;;;;;;;0.10;0.10;;;;;;;;;;4985451;28;20073;-60
2023/10/08 06:46:03;;;;;;;0.30;0.10;;;;;;;;;;4969505;28;20050;-60
2023/10/08 06:48:29;;;;;;;0.40;0.20;;;;;;;;;;4987829;28;20213;-60
2023/10/08 06:51:07;;;;;;;0.30;0.20;;;;;;;;;;4986873;28;20038;-60
2023/10/08 06:53:33;;;;;;;0.35;0.22;;;;;;;;;;4985437;28;20054;-60
2023/10/08 06:56:04;;;;;;;0.30;0.30;;;;;;;;;;4987534;28;20517;-60
2023/10/08 06:58:32;;;;;;;0.70;0.40;;;;;;;;;;4968890;28;20387;-61
2023/10/08 07:00:58;;;;;;;0.52;0.40;;;;;;;;;;4987437;28;20376;-60
2023/10/08 07:03:24;;;;;;;1.25;0.50;;;;;;;;;;4987075;28;20046;-60
2023/10/08 07:05:57;;;;;;;1.25;0.30;;;;;;;;;;4986761;28;20113;-60
2023/10/08 07:08:24;;;;;;;0.68;0.30;;;;;;;;;;4986854;28;20053;-60
2023/10/08 07:10:53;;;;;;;0.32;0.30;;;;;;;;;;4986166;28;20038;-60
2023/10/08 07:13:21;;;;;;;0.20;0.20;;;;;;;;;;4981954;28;20173;-60
2023/10/08 07:15:49;;;;;;;0.57;0.30;;;;;;;;;;4984699;28;20038;-60
2023/10/08 07:18:21;;;;;;;0.32;0.20;;;;;;;;;;4984467;28;20844;-60
2023/10/08 07:20:53;;;;;;;0.10;0.10;;;;;;;;;;4983990;28;20168;-60
2023/10/08 07:23:19;;;;;;;0.60;0.10;;;;;;;;;;4983842;28;20069;-60
2023/10/08 07:26:01;;;;;;;0.88;0.25;;;;;;;;;;4984466;28;20881;-59
2023/10/08 07:28:29;;;;;;;0.32;0.10;;;;;;;;;;4983853;28;20050;-60
2023/10/08 07:30:55;;;;;;;0.40;0.10;;;;;;;;;;4984478;28;20117;-60
2023/10/08 07:33:24;;;;;;;0.80;0.30;;;;;;;;;;4982621;28;20545;-60
2023/10/08 07:35:53;;;;;;;0.70;0.20;;;;;;;;;;4983742;28;20053;-60
2023/10/08 07:38:21;;;;;;;0.25;0.20;;;;;;;;;;4986438;28;20139;-60
2023/10/08 07:40:48;;;;;;;0.30;0.17;;;;;;;;;;4986448;28;20053;-60
2023/10/08 07:43:14;;;;;;;0.20;0.17;;;;;;;;;;4984698;28;20039;-60
2023/10/08 07:45:45;;;;;;;0.63;0.20;;;;;;;;;;4984341;28;20316;-60
2023/10/08 07:48:11;;;;;;;0.20;0.20;;;;;;;;;;4985154;28;20115;-60
2023/10/08 07:50:46;;;;;;;0.77;0.13;;;;;;;;;;4986556;28;20054;-60
2023/10/08 07:53:17;;;;;;;0.80;0.38;;;;;;;;;;4985278;28;20038;-60
2023/10/08 07:55:45;;;;;;;0.65;0.30;;;;;;;;;;4984882;28;20049;-59
2023/10/08 07:58:11;;;;;;;1.40;0.47;;;;;;;;;;4985600;28;20129;-60
2023/10/08 08:00:38;;;;;;;0.70;0.30;;;;;;;;;;4985593;28;20058;-60
2023/10/08 08:03:05;;;;;;;0.45;0.32;;;;;;;;;;4977979;28;20038;-60
2023/10/08 08:05:31;;;;;;;0.30;0.30;;;;;;;;;;4984662;28;20035;-60
2023/10/08 08:08:01;;;;;;;0.70;0.52;;;;;;;;;;4983879;28;20395;-60
2023/10/08 08:10:29;;;;;;;0.32;0.20;;;;;;;;;;4983447;28;20591;-60
2023/10/08 08:12:56;;;;;;;0.30;0.20;;;;;;;;;;4984102;28;20589;-60
2023/10/08 08:15:22;;;;;;;0.15;0.13;;;;;;;;;;4980137;28;20038;-62
2023/10/08 08:17:48;;;;;;;0.30;0.22;;;;;;;;;;4978699;28;20421;-62
2023/10/08 08:20:18;;;;;;;0.57;0.30;;;;;;;;;;4983297;28;20042;-62
2023/10/08 08:22:53;;;;;;;0.00;0.00;;;;;;;;;;4984269;28;20047;-61
2023/10/08 08:25:42;;;;;;;0.65;0.20;;;;;;;;;;4984566;28;20510;-61
2023/10/08 08:28:16;;;;;;;0.60;0.20;;;;;;;;;;4966746;28;20054;-62
2023/10/08 08:30:46;;;;;;;0.30;0.20;;;;;;;;;;4983072;28;20054;-61
2023/10/08 08:33:12;;;;;;;0.38;0.15;;;;;;;;;;4981489;28;20533;-61
2023/10/08 08:35:38;;;;;;;0.43;0.10;;;;;;;;;;4979268;28;20046;-62
2023/10/08 08:38:05;;;;;;;0.82;0.40;;;;;;;;;;4981888;28;20077;-61
2023/10/08 08:40:32;;;;;;;0.20;0.20;;;;;;;;;;4984698;28;20038;-61
2023/10/08 08:43:02;;;;;;;0.32;0.20;;;;;;;;;;4987447;28;20057;-61
2023/10/08 08:45:33;;;;;;;0.40;0.30;;;;;;;;;;4988606;28;20038;-61
2023/10/08 08:47:59;;;;;;;0.50;0.30;;;;;;;;;;4988672;28;20054;-61
2023/10/08 08:50:26;;;;;;;1.35;0.80;;;;;;;;;;4988200;28;20042;-62
2023/10/08 08:52:53;;;;;;;0.28;0.20;;;;;;;;;;4988299;28;20085;-62
2023/10/08 08:55:20;;;;;;;0.95;0.10;;;;;;;;;;4989402;28;20038;-61
2023/10/08 08:57:50;;;;;;;0.20;0.10;;;;;;;;;;4987940;28;20693;-61
2023/10/08 09:00:18;;;;;;;0.35;0.13;;;;;;;;;;4989138;28;20564;-61
2023/10/08 09:02:49;;;;;;;0.20;0.10;;;;;;;;;;4988159;28;20042;-61
2023/10/08 09:05:33;;;;;;;0.57;0.30;;;;;;;;;;4987819;28;20505;-61
2023/10/08 09:08:04;;;;;;;0.30;0.25;;;;;;;;;;4988409;28;20788;-62
2023/10/08 09:10:36;;;;;;;0.43;0.20;;;;;;;;;;4988833;28;20553;-61
2023/10/08 09:13:03;;;;;;;0.95;0.30;;;;;;;;;;4982421;28;20668;-62
2023/10/08 09:15:30;;;;;;;0.30;0.10;;;;;;;;;;4984991;28;21124;-61
2023/10/08 09:17:57;;;;;;;0.30;0.30;;;;;;;;;;4977738;28;20042;-61
2023/10/08 09:20:23;;;;;;;0.43;0.15;;;;;;;;;;4985684;28;20045;-61
2023/10/08 09:23:12;;;;;;;0.77;0.30;;;;;;;;;;4985879;28;20598;-61
2023/10/08 09:25:40;;;;;;;0.30;0.10;;;;;;;;;;4985185;28;20497;-61
2023/10/08 09:28:07;;;;;;;1.02;0.30;;;;;;;;;;4985224;28;20595;-61
2023/10/08 09:30:39;;;;;;;0.47;0.20;;;;;;;;;;4982888;28;20054;-61
2023/10/08 09:33:09;;;;;;;0.43;0.30;;;;;;;;;;4979334;28;20045;-61
2023/10/08 09:35:36;;;;;;;0.28;0.25;;;;;;;;;;4987842;28;20046;-61
2023/10/08 09:38:11;;;;;;;0.28;0.22;;;;;;;;;;4986127;28;20042;-61
2023/10/08 09:40:38;;;;;;;0.43;0.10;;;;;;;;;;4983199;28;20043;-61
2023/10/08 09:43:04;;;;;;;5.32;0.50;;;;;;;;;;4981757;28;20069;-61
2023/10/08 09:45:31;;;;;;;1.00;0.20;;;;;;;;;;4981245;28;20545;-61
2023/10/08 09:47:57;;;;;;;0.20;0.10;;;;;;;;;;4979759;28;20042;-61
2023/10/08 09:50:32;;;;;;;0.75;0.20;;;;;;;;;;4984939;28;20053;-61
2023/10/08 09:53:06;;;;;;;0.50;0.15;;;;;;;;;;4980415;28;20125;-61
2023/10/08 09:55:32;;;;;;;0.32;0.10;;;;;;;;;;4986121;28;20145;-61
2023/10/08 09:57:58;;;;;;;0.75;0.20;;;;;;;;;;4987261;28;20478;-61
2023/10/08 10:00:30;;;;;;;0.82;0.28;;;;;;;;;;4985004;28;20051;-61
2023/10/08 10:03:01;;;;;;;1.15;0.40;;;;;;;;;;4985008;28;20462;-61
2023/10/08 10:05:37;;;;;;;1.77;0.47;;;;;;;;;;4983169;28;20057;-60
2023/10/08 10:08:09;;;;;;;0.90;0.40;;;;;;;;;;4979180;28;20034;-61
2023/10/08 10:10:38;;;;;;;2.38;0.40;;;;;;;;;;4979451;28;20457;-61
2023/10/08 10:13:07;;;;;;;0.55;0.43;;;;;;;;;;4964959;28;20561;-60
2023/10/08 10:15:34;;;;;;;0.98;0.28;;;;;;;;;;4980379;28;20041;-60
2023/10/08 10:18:14;;;;;;;0.40;0.38;;;;;;;;;;4985317;28;20054;-60
2023/10/08 10:20:41;;;;;;;0.52;0.20;;;;;;;;;;4979903;28;20047;-60
2023/10/08 10:23:26;;;;;;;0.77;0.40;;;;;;;;;;4978171;28;20486;-61
2023/10/08 10:25:54;;;;;;;0.73;0.40;;;;;;;;;;4983188;28;20049;-60
2023/10/08 10:28:23;;;;;;;1.75;0.40;;;;;;;;;;4979493;28;20137;-60
2023/10/08 10:30:51;;;;;;;0.73;0.35;;;;;;;;;;4982749;28;20060;-61
2023/10/08 10:33:17;;;;;;;0.95;0.50;;;;;;;;;;4981992;28;20129;-60
2023/10/08 10:35:50;;;;;;;1.02;0.57;;;;;;;;;;4979812;28;20125;-61
2023/10/08 10:38:20;;;;;;;1.70;0.68;;;;;;;;;;4984819;28;20154;-61
2023/10/08 10:40:56;;;;;;;2.38;0.73;;;;;;;;;;4985052;28;20257;-61
2023/10/08 10:43:31;;;;;;;0.90;0.60;;;;;;;;;;4979890;28;20564;-61
2023/10/08 10:45:58;;;;;;;3.13;0.88;;;;;;;;;;4984192;28;20854;-61
2023/10/08 10:48:25;;;;;;;4.13;0.90;;;;;;;;;;4985822;28;20077;-61
2023/10/08 10:53:30;;;;;;;1.33;0.50;;;;;;;;;;4986068;28;20130;-61
2023/10/08 10:56:03;;;;;;;2.30;0.35;;;;;;;;;;4982673;28;20461;-61
2023/10/08 10:58:38;;;;;;;2.60;0.85;;;;;;;;;;4981658;28;20042;-61
2023/10/08 11:01:07;;;;;;;2.15;0.65;;;;;;;;;;4984553;28;20039;-61
2023/10/08 11:03:34;;;;;;;1.85;0.80;;;;;;;;;;4978990;28;20042;-61
2023/10/08 11:06:06;;;;;;;4.28;0.90;;;;;;;;;;4984815;28;20058;-61
2023/10/08 11:08:34;;;;;;;2.13;0.90;;;;;;;;;;4980008;28;20053;-61
2023/10/08 11:11:05;;;;;;;2.22;0.75;;;;;;;;;;4982505;28;20481;-61
2023/10/08 11:13:37;;;;;;;2.83;0.85;;;;;;;;;;4983950;28;20046;-61
2023/10/08 11:16:05;;;;;;;1.23;0.70;;;;;;;;;;4981590;28;20070;-61
2023/10/08 11:18:32;;;;;;;1.67;0.60;;;;;;;;;;4979079;28;20046;-61
2023/10/08 11:21:23;;;;;;;1.27;0.70;;;;;;;;;;4985079;28;20521;-61
2023/10/08 11:23:55;;;;;;;0.65;0.55;;;;;;;;;;4985173;28;20113;-60
2023/10/08 11:26:35;;;;;;;2.70;0.70;;;;;;;;;;4962449;28;20073;-61
2023/10/08 11:29:03;;;;;;;3.50;0.98;;;;;;;;;;4981349;28;20108;-61
2023/10/08 11:31:29;;;;;;;1.98;0.90;;;;;;;;;;4986022;28;20062;-61
2023/10/08 11:34:08;;;;;;;1.95;0.35;;;;;;;;;;4981107;28;20050;-61
2023/10/08 11:36:48;;;;;;;2.03;0.80;;;;;;;;;;4985578;28;20047;-61
2023/10/08 11:39:21;;;;;;;2.78;0.95;;;;;;;;;;4977099;28;20060;-61
2023/10/08 11:42:51;;;;;;;2.08;0.77;;;;;;;;;;4985606;28;20402;-61
2023/10/08 11:44:52;;;;;;;1.58;0.75;;;;;;;;;;4973229;28;20421;-61
2023/10/08 11:47:21;;;;;;;3.65;0.88;;;;;;;;;;4985961;28;20073;-61
2023/10/08 11:49:50;;;;;;;1.85;0.82;;;;;;;;;;4986264;28;20054;-60
2023/10/08 11:52:16;;;;;;;2.35;0.80;;;;;;;;;;4981608;28;20047;-60
2023/10/08 11:54:48;;;;;;;2.05;0.88;;;;;;;;;;4984942;28;20093;-61
2023/10/08 11:57:14;;;;;;;1.25;0.65;;;;;;;;;;4986534;28;20053;-60
2023/10/08 11:59:41;;;;;;;0.63;0.45;;;;;;;;;;4985885;28;20119;-61
2023/10/08 12:02:07;;;;;;;1.67;0.60;;;;;;;;;;4975098;28;20048;-60
2023/10/08 12:04:33;;;;;;;2.17;0.70;;;;;;;;;;4969094;28;20578;-60
2023/10/08 12:07:02;;;;;;;0.93;0.40;;;;;;;;;;4985156;28;20580;-61
2023/10/08 12:09:28;;;;;;;2.38;0.63;;;;;;;;;;4981727;28;20054;-61
2023/10/08 12:11:57;;;;;;;0.93;0.50;;;;;;;;;;4982485;28;20058;-61
2023/10/08 12:14:30;;;;;;;0.70;0.30;;;;;;;;;;4984709;28;20452;-66
2023/10/08 12:16:56;;;;;;;1.05;0.50;;;;;;;;;;4977541;28;20038;-62
2023/10/08 12:19:22;;;;;;;2.08;0.80;;;;;;;;;;4982865;28;20042;-61
2023/10/08 12:21:49;;;;;;;1.80;0.50;;;;;;;;;;4976109;28;20043;-61
2023/10/08 12:24:15;;;;;;;1.25;0.50;;;;;;;;;;4979658;28;20042;-61
2023/10/08 12:26:47;;;;;;;3.45;0.80;;;;;;;;;;4981734;28;20477;-61
2023/10/08 12:29:19;;;;;;;;;;;;;;;;;;4981301;28;20042;-60
2023/10/08 12:31:47;;;;;;;1.73;0.65;;;;;;;;;;4982014;28;19922;-61
2023/10/08 12:34:14;;;;;;;2.63;0.68;;;;;;;;;;4982164;28;20038;-61
2023/10/08 12:36:40;;;;;;;1.40;0.70;;;;;;;;;;4984333;28;20039;-61
2023/10/08 12:39:14;;;;;;;1.75;1.50;;;;;;;;;;4962752;28;20078;-61
2023/10/08 12:41:43;;;;;;;0.98;0.60;;;;;;;;;;4985197;28;20121;-61
2023/10/08 12:44:09;;;;;;;2.38;0.90;;;;;;;;;;4976024;28;20042;-61
2023/10/08 12:46:36;;;;;;;1.02;0.50;;;;;;;;;;4981569;28;20043;-61
2023/10/08 12:49:02;;;;;;;1.30;0.77;;;;;;;;;;4984061;28;20042;-61
2023/10/08 12:51:32;;;;;;;1.02;0.50;;;;;;;;;;4984107;28;20081;-62
2023/10/08 12:53:59;;;;;;;1.10;0.47;;;;;;;;;;4981253;28;20518;-61
2023/10/08 12:56:31;;;;;;;1.77;0.65;;;;;;;;;;4980204;28;20030;-61
2023/10/08 12:58:58;;;;;;;1.70;0.70;;;;;;;;;;4982181;28;20085;-61
2023/10/08 13:01:28;;;;;;;2.70;1.02;;;;;;;;;;4982312;28;20490;-61
2023/10/08 13:03:59;;;;;;;3.08;0.90;;;;;;;;;;4982643;28;20094;-61
2023/10/08 13:06:28;;;;;;;0.83;0.40;;;;;;;;;;4979182;28;20049;-61
2023/10/08 13:08:58;;;;;;;0.50;0.40;;;;;;;;;;4984447;28;20041;-61
2023/10/08 13:11:25;;;;;;;2.50;0.80;;;;;;;;;;4976736;28;20122;-61
2023/10/08 13:13:52;;;;;;;0.47;0.30;;;;;;;;;;4983248;28;20506;-61
2023/10/08 13:16:21;;;;;;;1.25;0.50;;;;;;;;;;4963430;28;20042;-61
2023/10/08 13:18:48;;;;;;;1.27;0.75;;;;;;;;;;4984528;28;20502;-61
2023/10/08 13:21:14;;;;;;;1.15;0.50;;;;;;;;;;4985036;28;20093;-61
2023/10/08 13:23:41;;;;;;;1.20;0.50;;;;;;;;;;4978546;28;20030;-61
2023/10/08 13:26:07;;;;;;;1.25;0.60;;;;;;;;;;4981852;28;20513;-61
2023/10/08 13:28:36;;;;;;;2.67;0.88;;;;;;;;;;4988578;28;20498;-61
2023/10/08 13:31:09;;;;;;;2.05;0.57;;;;;;;;;;4985141;28;20075;-61
2023/10/08 13:33:38;;;;;;;2.88;0.70;;;;;;;;;;4988149;28;20057;-61
2023/10/08 13:36:07;;;;;;;1.38;0.60;;;;;;;;;;4985384;28;20053;-61
2023/10/08 13:38:34;;;;;;;1.10;0.52;;;;;;;;;;4980577;28;20039;-61
2023/10/08 13:41:03;;;;;;;2.15;0.77;;;;;;;;;;4983866;28;20066;-61
2023/10/08 13:43:36;;;;;;;0.68;0.40;;;;;;;;;;4988292;28;20049;-61
2023/10/08 13:46:13;;;;;;;1.35;0.52;;;;;;;;;;4969579;28;20057;-61
2023/10/08 13:48:39;;;;;;;1.13;0.30;;;;;;;;;;4988058;28;20096;-61
2023/10/08 13:51:10;;;;;;;1.15;0.40;;;;;;;;;;4988330;28;20046;-61
2023/10/08 13:53:39;;;;;;;1.80;0.40;;;;;;;;;;4986969;28;20054;-61
2023/10/08 13:56:05;;;;;;;0.70;0.30;;;;;;;;;;4987536;28;20189;-62
2023/10/08 13:58:36;;;;;;;0.85;0.35;;;;;;;;;;4987284;28;20145;-61
2023/10/08 14:01:13;;;;;;;0.77;0.40;;;;;;;;;;4978761;28;20077;-61
2023/10/08 14:03:41;;;;;;;0.88;0.38;;;;;;;;;;4987410;28;20050;-61
2023/10/08 14:06:08;;;;;;;1.42;0.40;;;;;;;;;;4987417;28;20490;-62
2023/10/08 14:08:34;;;;;;;0.47;0.30;;;;;;;;;;4987307;28;20043;-61
2023/10/08 14:11:02;;;;;;;0.65;0.35;;;;;;;;;;4988234;28;20039;-61
2023/10/08 14:13:32;;;;;;;0.88;0.40;;;;;;;;;;4987614;28;20042;-61
2023/10/08 14:16:08;;;;;;;0.73;0.30;;;;;;;;;;4988015;28;20577;-61
2023/10/08 14:18:40;;;;;;;0.88;0.25;;;;;;;;;;4987796;28;20096;-61
2023/10/08 14:21:10;;;;;;;0.57;0.38;;;;;;;;;;4983810;28;20582;-61
2023/10/08 14:23:39;;;;;;;1.13;0.30;;;;;;;;;;4984893;28;20038;-61
2023/10/08 14:26:06;;;;;;;1.65;0.47;;;;;;;;;;4983639;28;20096;-61
2023/10/08 14:28:52;;;;;;;0.43;0.32;;;;;;;;;;4987389;28;20045;-61
2023/10/08 14:31:22;;;;;;;2.40;0.60;;;;;;;;;;4986841;28;20142;-61
2023/10/08 14:34:19;;;;;;;1.02;0.45;;;;;;;;;;4987672;28;20049;-62
2023/10/08 14:45:11;;;;;;;2.20;0.70;;;;;;;;;;4977614;28;20047;-62
2023/10/08 14:47:37;;;;;;;0.45;0.30;;;;;;;;;;4983523;28;20101;-61
2023/10/08 14:50:05;;;;;;;0.70;0.28;;;;;;;;;;4982803;28;20395;-62
2023/10/08 14:52:31;;;;;;;1.35;0.40;;;;;;;;;;4985404;28;20050;-61
2023/10/08 14:54:57;;;;;;;0.93;0.50;;;;;;;;;;4985973;28;20042;-61
2023/10/08 14:57:26;;;;;;;0.68;0.45;;;;;;;;;;4980087;28;20402;-62
2023/10/08 14:59:52;;;;;;;0.73;0.30;;;;;;;;;;4980272;28;20039;-61
2023/10/08 15:02:18;;;;;;;0.43;0.32;;;;;;;;;;4986719;28;20043;-61
2023/10/08 15:04:44;;;;;;;1.00;0.30;;;;;;;;;;4984746;28;20042;-62
2023/10/08 15:07:11;;;;;;;0.50;0.30;;;;;;;;;;4963334;28;20046;-61
2023/10/08 15:09:38;;;;;;;0.30;0.20;;;;;;;;;;4986053;28;20414;-60
2023/10/08 15:12:06;;;;;;;1.00;0.50;;;;;;;;;;4985587;28;20061;-61
2023/10/08 15:14:32;;;;;;;1.48;0.50;;;;;;;;;;4976000;28;20089;-61
2023/10/08 15:16:59;;;;;;;0.90;0.30;;;;;;;;;;4977089;28;20089;-61
2023/10/08 15:19:25;;;;;;;0.55;0.43;;;;;;;;;;4983839;28;20077;-61
2023/10/08 15:21:52;;;;;;;0.50;0.32;;;;;;;;;;4987137;28;20034;-61
2023/10/08 15:24:21;;;;;;;3.40;0.80;;;;;;;;;;4985500;28;20079;-61
2023/10/08 15:26:47;;;;;;;0.82;0.55;;;;;;;;;;4977945;28;20054;-61
2023/10/08 15:29:14;;;;;;;0.73;0.63;;;;;;;;;;4978482;28;20495;-62
2023/10/08 15:31:40;;;;;;;0.95;0.30;;;;;;;;;;4981698;28;20050;-61
2023/10/08 15:34:07;;;;;;;0.65;0.40;;;;;;;;;;4976832;28;20058;-60
2023/10/08 15:36:33;;;;;;;0.38;0.30;;;;;;;;;;4981898;28;20600;-61
2023/10/08 15:38:59;;;;;;;1.10;0.30;;;;;;;;;;4979242;28;20069;-60
2023/10/08 15:41:25;;;;;;;0.65;0.38;;;;;;;;;;4981088;28;20038;-61
2023/10/08 15:43:53;;;;;;;0.95;0.40;;;;;;;;;;4981905;28;20126;-59
2023/10/08 15:46:20;;;;;;;0.95;0.40;;;;;;;;;;4962861;28;20050;-61
2023/10/08 15:48:46;;;;;;;1.23;0.55;;;;;;;;;;4984328;28;20093;-60
2023/10/08 15:51:12;;;;;;;0.90;0.50;;;;;;;;;;4979844;28;20046;-60
2023/10/08 15:53:39;;;;;;;0.85;0.47;;;;;;;;;;4975218;28;20407;-61
2023/10/08 15:56:05;;;;;;;0.85;0.47;;;;;;;;;;4979946;28;20054;-61
2023/10/08 15:58:31;;;;;;;1.88;0.60;;;;;;;;;;4982526;28;20034;-60
2023/10/08 16:00:57;;;;;;;0.30;0.20;;;;;;;;;;4976365;28;20046;-61
2023/10/08 16:03:23;;;;;;;0.60;0.50;;;;;;;;;;4978401;28;20042;-62
2023/10/08 16:05:50;;;;;;;0.50;0.32;;;;;;;;;;4973881;28;20668;-59
2023/10/08 16:08:16;;;;;;;1.25;0.47;;;;;;;;;;4973704;28;20070;-61
2023/10/08 16:10:42;;;;;;;3.50;0.57;;;;;;;;;;4978008;28;20137;-61
2023/10/08 16:13:11;;;;;;;1.23;0.52;;;;;;;;;;4974768;28;20070;-61
2023/10/08 16:15:39;;;;;;;1.17;0.47;;;;;;;;;;4974385;28;20499;-61